createdAt,value
2022-08-26T00:00:54.444Z,35.50
2022-08-26T00:03:23.401Z,36.00
2022-08-26T00:05:52.256Z,36.47
2022-08-26T00:08:22.038Z,37.40
2022-08-26T00:10:50.849Z,35.53
2022-08-26T00:13:19.719Z,37.47
2022-08-26T00:15:51.481Z,36.97
2022-08-26T00:18:22.178Z,36.50
2022-08-26T00:20:52.162Z,35.37
2022-08-26T00:23:20.954Z,37.87
2022-08-26T00:25:56.768Z,37.40
2022-08-26T00:28:25.876Z,37.07
2022-08-26T00:30:56.018Z,37.77
2022-08-26T00:33:24.571Z,37.30
2022-08-26T00:35:52.809Z,38.00
2022-08-26T00:38:23.682Z,38.80
2022-08-26T00:40:59.470Z,36.80
2022-08-26T00:43:28.828Z,38.87
2022-08-26T00:46:05.938Z,39.10
2022-08-26T00:48:38.856Z,40.50
2022-08-26T00:51:14.262Z,38.07
2022-08-26T00:53:54.629Z,38.53
2022-08-26T00:56:27.592Z,39.33
2022-08-26T00:58:59.900Z,36.60
2022-08-26T01:01:30.777Z,38.20
2022-08-26T01:03:59.949Z,36.90
2022-08-26T01:06:29.859Z,37.20
2022-08-26T01:08:58.826Z,36.53
2022-08-26T01:11:27.794Z,38.83
2022-08-26T01:13:58.989Z,37.87
2022-08-26T01:16:32.119Z,38.53
2022-08-26T01:19:04.941Z,37.73
2022-08-26T01:21:41.297Z,39.47
2022-08-26T01:24:13.867Z,39.60
2022-08-26T01:26:44.835Z,36.50
2022-08-26T01:29:16.947Z,38.50
2022-08-26T01:31:48.402Z,38.97
2022-08-26T01:34:22.682Z,39.90
2022-08-26T01:36:52.269Z,39.33
2022-08-26T01:39:23.120Z,40.20
2022-08-26T01:41:54.537Z,38.57
2022-08-26T01:44:27.865Z,40.13
2022-08-26T01:46:58.812Z,39.83
2022-08-26T01:49:31.971Z,40.30
2022-08-26T01:52:05.770Z,40.67
2022-08-26T01:54:36.935Z,38.50
2022-08-26T01:57:07.417Z,38.93
2022-08-26T01:59:36.231Z,39.57
2022-08-26T02:02:04.645Z,39.60
2022-08-26T02:04:37.513Z,39.27
2022-08-26T02:07:10.203Z,40.30
2022-08-26T02:09:42.876Z,39.90
2022-08-26T02:12:13.318Z,40.20
2022-08-26T02:14:46.877Z,41.00
2022-08-26T02:17:15.714Z,39.33
2022-08-26T02:19:48.799Z,40.70
2022-08-26T02:22:21.191Z,39.67
2022-08-26T02:24:53.260Z,42.90
2022-08-26T02:27:24.837Z,39.97
2022-08-26T02:29:57.507Z,37.73
2022-08-26T02:32:26.022Z,39.17
2022-08-26T02:34:55.396Z,39.20
2022-08-26T02:37:24.159Z,38.63
2022-08-26T02:39:55.262Z,41.10
2022-08-26T02:42:23.690Z,38.40
2022-08-26T02:44:53.347Z,38.70
2022-08-26T02:47:21.606Z,38.90
2022-08-26T02:49:53.324Z,39.30
2022-08-26T02:52:24.137Z,39.00
2022-08-26T02:54:54.195Z,39.80
2022-08-26T02:57:23.807Z,37.07
2022-08-26T02:59:52.698Z,39.63
2022-08-26T03:02:23.342Z,37.50
2022-08-26T03:04:57.714Z,38.47
2022-08-26T03:07:30.565Z,38.77
2022-08-26T03:10:00.870Z,40.97
2022-08-26T03:12:29.167Z,39.07
2022-08-26T03:14:58.063Z,39.30
2022-08-26T03:17:27.029Z,38.60
2022-08-26T03:19:57.243Z,39.17
2022-08-26T03:22:28.227Z,39.63
2022-08-26T03:24:56.716Z,39.60
2022-08-26T03:27:26.519Z,42.13
2022-08-26T03:30:15.783Z,39.80
2022-08-26T03:32:48.035Z,38.83
2022-08-26T03:35:16.778Z,38.03
2022-08-26T03:37:45.037Z,41.20
2022-08-26T03:40:13.807Z,38.67
2022-08-26T03:42:45.453Z,38.67
2022-08-26T03:45:14.579Z,38.70
2022-08-26T03:47:45.906Z,40.80
2022-08-26T03:50:22.842Z,39.73
2022-08-26T03:52:55.915Z,37.00
2022-08-26T03:55:31.928Z,41.63
2022-08-26T03:58:02.693Z,38.93
2022-08-26T04:00:31.766Z,37.40
2022-08-26T04:03:05.178Z,38.83
2022-08-26T04:05:38.363Z,37.27
2022-08-26T04:08:07.055Z,36.63
2022-08-26T04:10:38.450Z,35.97
2022-08-26T04:13:08.368Z,36.70
2022-08-26T04:15:36.899Z,36.97
2022-08-26T04:18:05.276Z,37.70
2022-08-26T04:20:33.465Z,35.90
2022-08-26T04:23:01.713Z,37.83
2022-08-26T04:25:33.146Z,36.27
2022-08-26T04:28:01.439Z,36.30
2022-08-26T04:30:31.570Z,36.77
2022-08-26T04:32:59.907Z,36.93
2022-08-26T04:35:28.135Z,36.07
2022-08-26T04:37:59.046Z,39.37
2022-08-26T04:40:27.737Z,36.90
2022-08-26T04:42:56.443Z,40.20
2022-08-26T04:45:25.321Z,44.97
2022-08-26T04:47:56.456Z,47.53
2022-08-26T04:50:26.559Z,42.47
2022-08-26T04:52:56.464Z,43.00
2022-08-26T04:55:39.763Z,40.67
2022-08-26T04:58:10.972Z,39.50
2022-08-26T05:00:41.587Z,42.50
2022-08-26T05:03:11.862Z,44.20
2022-08-26T05:05:44.538Z,45.87
2022-08-26T05:08:14.329Z,44.97
2022-08-26T05:10:46.031Z,40.63
2022-08-26T05:13:15.894Z,40.80
2022-08-26T05:15:45.089Z,39.87
2022-08-26T05:18:19.943Z,40.77
2022-08-26T05:20:50.292Z,40.70
2022-08-26T05:23:20.729Z,38.93
2022-08-26T05:25:50.302Z,38.60
2022-08-26T05:28:22.048Z,38.30
2022-08-26T05:30:51.256Z,38.70
2022-08-26T05:33:21.449Z,39.73
2022-08-26T05:35:50.509Z,40.10
2022-08-26T05:38:21.505Z,37.37
2022-08-26T05:40:52.702Z,39.60
2022-08-26T05:43:23.828Z,40.40
2022-08-26T05:45:52.511Z,38.50
2022-08-26T05:48:24.189Z,38.27
2022-08-26T05:50:54.251Z,38.80
2022-08-26T05:53:24.018Z,37.87
2022-08-26T05:55:55.538Z,40.00
2022-08-26T05:58:24.904Z,37.87
2022-08-26T06:01:00.294Z,39.27
2022-08-26T06:03:31.105Z,40.30
2022-08-26T06:06:00.103Z,39.50
2022-08-26T06:08:28.297Z,38.57
2022-08-26T06:11:00.967Z,38.33
2022-08-26T06:13:32.021Z,37.20
2022-08-26T06:16:01.636Z,38.60
2022-08-26T06:18:35.502Z,38.40
2022-08-26T06:21:14.252Z,38.70
2022-08-26T06:24:01.820Z,38.27
2022-08-26T06:26:30.774Z,38.23
2022-08-26T06:28:59.373Z,37.43
2022-08-26T06:31:34.317Z,37.50
2022-08-26T06:34:10.514Z,38.10
2022-08-26T06:36:40.449Z,38.27
2022-08-26T06:39:19.064Z,36.50
2022-08-26T06:41:48.867Z,38.47
2022-08-26T06:44:18.838Z,37.20
2022-08-26T06:46:50.395Z,37.90
2022-08-26T06:49:26.974Z,38.27
2022-08-26T06:51:58.447Z,35.73
2022-08-26T06:54:27.466Z,38.67
2022-08-26T06:56:57.217Z,37.07
2022-08-26T06:59:25.960Z,35.33
2022-08-26T07:01:55.052Z,36.43
2022-08-26T07:04:25.159Z,34.97
2022-08-26T07:06:58.693Z,38.43
2022-08-26T07:09:30.449Z,33.87
2022-08-26T07:11:58.883Z,35.00
2022-08-26T07:14:27.473Z,35.17
2022-08-26T07:16:56.072Z,35.90
2022-08-26T07:19:29.982Z,35.33
2022-08-26T07:22:02.095Z,33.60
2022-08-26T07:24:31.208Z,33.43
2022-08-26T07:27:02.785Z,34.10
2022-08-26T07:29:31.538Z,35.00
2022-08-26T07:31:59.980Z,35.93
2022-08-26T07:34:29.760Z,35.23
2022-08-26T07:36:58.838Z,35.90
2022-08-26T07:39:27.988Z,36.23
2022-08-26T07:41:56.461Z,37.27
2022-08-26T07:44:27.275Z,35.10
2022-08-26T07:46:55.835Z,35.60
2022-08-26T07:49:27.104Z,35.40
2022-08-26T07:51:58.081Z,35.67
2022-08-26T07:54:26.742Z,34.97
2022-08-26T07:56:56.227Z,34.70
2022-08-26T07:59:27.565Z,33.67
2022-08-26T08:01:59.344Z,34.17
2022-08-26T08:04:29.565Z,34.70
2022-08-26T08:06:59.450Z,31.97
2022-08-26T08:09:28.842Z,34.47
2022-08-26T08:12:00.608Z,31.70
2022-08-26T08:14:28.956Z,33.23
2022-08-26T08:17:00.670Z,34.50
2022-08-26T08:19:36.835Z,32.47
2022-08-26T08:22:17.130Z,33.30
2022-08-26T08:24:46.126Z,31.50
2022-08-26T08:27:23.518Z,31.50
2022-08-26T08:29:55.733Z,32.93
2022-08-26T08:32:25.071Z,30.60
2022-08-26T08:34:54.407Z,32.00
2022-08-26T08:37:24.442Z,30.77
2022-08-26T08:39:52.913Z,28.93
2022-08-26T08:42:42.423Z,30.10
2022-08-26T08:45:15.390Z,29.53
2022-08-26T08:47:50.388Z,28.20
2022-08-26T08:50:25.849Z,28.07
2022-08-26T08:53:05.778Z,28.50
2022-08-26T08:55:50.059Z,28.00
2022-08-26T08:58:21.338Z,28.67
2022-08-26T09:00:56.053Z,27.13
2022-08-26T09:03:39.611Z,27.00
2022-08-26T09:06:17.062Z,26.93
2022-08-26T09:08:50.271Z,26.70
2022-08-26T09:11:20.958Z,26.53
2022-08-26T09:13:57.918Z,26.63
2022-08-26T09:16:46.244Z,26.23
2022-08-26T09:19:31.922Z,26.87
2022-08-26T09:22:07.029Z,27.80
2022-08-26T09:24:48.376Z,27.73
2022-08-26T09:27:50.536Z,26.63
2022-08-26T09:30:35.001Z,27.67
2022-08-26T09:33:10.869Z,25.80
2022-08-26T09:35:42.025Z,27.63
2022-08-26T09:38:27.239Z,27.63
2022-08-26T09:41:01.809Z,29.70
2022-08-26T09:43:35.578Z,27.37
2022-08-26T09:46:19.807Z,27.50
2022-08-26T09:49:54.010Z,29.50
2022-08-26T09:52:29.592Z,28.93
2022-08-26T09:55:14.735Z,28.53
2022-08-26T09:58:07.996Z,27.30
2022-08-26T10:00:39.654Z,28.03
2022-08-26T10:03:17.282Z,28.53
2022-08-26T10:06:02.469Z,28.13
2022-08-26T10:08:38.368Z,29.00
2022-08-26T10:11:24.623Z,27.23
2022-08-26T10:14:00.064Z,28.33
2022-08-26T10:16:37.832Z,27.60
2022-08-26T10:19:11.456Z,27.83
2022-08-26T10:22:16.512Z,28.60
2022-08-26T10:24:54.938Z,29.30
2022-08-26T10:28:21.321Z,28.33
2022-08-26T10:31:40.733Z,26.90
2022-08-26T10:35:05.503Z,27.80
2022-08-26T10:37:46.850Z,28.27
2022-08-26T10:41:09.901Z,25.20
2022-08-26T10:47:39.314Z,27.10
2022-08-26T10:54:10.401Z,29.07
2022-08-26T10:57:06.224Z,28.10
2022-08-26T11:00:24.068Z,27.57
2022-08-26T11:03:21.879Z,27.40
2022-08-26T11:06:23.058Z,23.40
2022-08-26T11:08:55.295Z,22.90
2022-08-26T11:11:56.894Z,22.70
2022-08-26T11:14:53.339Z,23.40
2022-08-26T11:18:11.458Z,23.33
2022-08-26T11:21:20.209Z,22.00
2022-08-26T11:23:55.164Z,20.53
2022-08-26T11:26:43.251Z,20.10
2022-08-26T11:30:03.053Z,21.50
2022-08-26T11:32:53.424Z,21.40
2022-08-26T11:36:14.831Z,21.60
2022-08-26T11:38:45.416Z,21.60
2022-08-26T11:41:23.284Z,21.50
2022-08-26T11:43:58.647Z,21.53
2022-08-26T11:46:38.304Z,21.63
2022-08-26T11:49:13.177Z,23.00
2022-08-26T11:51:55.721Z,20.40
2022-08-26T11:54:37.800Z,22.77
2022-08-26T11:57:27.447Z,22.67
2022-08-26T12:00:03.956Z,20.87
2022-08-26T12:02:44.809Z,22.13
2022-08-26T12:05:18.412Z,20.60
2022-08-26T12:07:57.415Z,20.60
2022-08-26T12:10:38.033Z,20.00
2022-08-26T12:13:26.251Z,20.00
2022-08-26T12:16:03.683Z,21.23
2022-08-26T12:18:36.197Z,20.20
2022-08-26T12:21:14.515Z,18.37
2022-08-26T12:23:50.039Z,18.13
2022-08-26T12:26:28.253Z,19.17
2022-08-26T12:29:19.853Z,18.70
2022-08-26T12:31:50.227Z,18.90
2022-08-26T12:34:19.711Z,17.53
2022-08-26T12:36:55.310Z,19.63
2022-08-26T12:39:31.564Z,19.37
2022-08-26T12:42:01.944Z,19.10
2022-08-26T12:44:38.529Z,18.87
2022-08-26T12:47:13.792Z,18.60
2022-08-26T12:49:45.178Z,20.40
2022-08-26T12:52:31.697Z,19.83
2022-08-26T12:55:03.180Z,19.07
2022-08-26T12:57:35.314Z,19.20
2022-08-26T13:00:31.978Z,20.70
2022-08-26T13:03:04.663Z,20.38
2022-08-26T13:05:35.669Z,18.77
2022-08-26T13:08:16.339Z,19.23
2022-08-26T13:10:47.011Z,19.48
2022-08-26T13:13:19.952Z,20.65
2022-08-26T13:15:50.304Z,20.55
2022-08-26T13:18:22.176Z,19.20
2022-08-26T13:20:50.512Z,19.35
2022-08-26T13:23:27.206Z,19.77
2022-08-26T13:25:55.902Z,21.02
2022-08-26T13:28:24.480Z,19.80
2022-08-26T13:30:54.604Z,20.92
2022-08-26T13:33:22.962Z,20.52
2022-08-26T13:35:58.394Z,20.63
2022-08-26T13:38:33.693Z,18.42
2022-08-26T13:41:03.719Z,19.77
2022-08-26T13:43:32.442Z,19.97
2022-08-26T13:46:02.783Z,19.90
2022-08-26T13:48:31.960Z,19.70
2022-08-26T13:51:02.763Z,19.50
2022-08-26T13:53:36.335Z,19.90
2022-08-26T13:56:10.802Z,19.87
2022-08-26T13:58:39.552Z,20.43
2022-08-26T14:01:09.932Z,20.77
2022-08-26T14:03:38.565Z,20.93
2022-08-26T14:06:07.228Z,21.60
2022-08-26T14:08:36.959Z,20.50
2022-08-26T14:11:05.500Z,21.10
2022-08-26T14:13:34.020Z,20.30
2022-08-26T14:16:10.207Z,20.53
2022-08-26T14:18:43.042Z,21.07
2022-08-26T14:21:14.915Z,20.53
2022-08-26T14:23:43.248Z,21.57
2022-08-26T14:26:16.807Z,19.53
2022-08-26T14:28:57.366Z,19.83
2022-08-26T14:31:27.103Z,19.60
2022-08-26T14:33:59.074Z,19.63
2022-08-26T14:36:32.371Z,20.33
2022-08-26T14:39:07.503Z,19.70
2022-08-26T14:41:44.081Z,19.50
2022-08-26T14:44:15.213Z,19.80
2022-08-26T14:46:46.941Z,19.90
2022-08-26T14:49:19.682Z,19.03
2022-08-26T14:51:48.494Z,19.13
2022-08-26T14:54:18.524Z,19.70
2022-08-26T14:56:49.669Z,19.97
2022-08-26T14:59:20.860Z,19.80
2022-08-26T15:01:49.372Z,18.60
2022-08-26T15:04:19.848Z,19.40
2022-08-26T15:06:48.739Z,19.53
2022-08-26T15:09:17.677Z,19.90
2022-08-26T15:11:48.139Z,19.33
2022-08-26T15:14:20.422Z,20.30
2022-08-26T15:16:52.778Z,19.90
2022-08-26T15:19:24.002Z,19.50
2022-08-26T15:21:52.485Z,19.53
2022-08-26T15:24:22.982Z,18.93
2022-08-26T15:26:52.110Z,18.67
2022-08-26T15:29:21.662Z,19.77
2022-08-26T15:31:49.886Z,19.80
2022-08-26T15:34:20.609Z,19.00
2022-08-26T15:36:50.429Z,20.67
2022-08-26T15:39:19.035Z,20.27
2022-08-26T15:41:47.905Z,19.23
2022-08-26T15:44:19.797Z,19.27
2022-08-26T15:46:49.958Z,19.50
2022-08-26T15:49:20.220Z,19.43
2022-08-26T15:51:52.531Z,19.00
2022-08-26T15:54:24.227Z,19.30
2022-08-26T15:56:53.919Z,17.90
2022-08-26T15:59:23.463Z,18.33
2022-08-26T16:01:52.384Z,17.67
2022-08-26T16:04:21.130Z,18.00
2022-08-26T16:06:52.279Z,18.17
2022-08-26T16:09:24.203Z,17.60
2022-08-26T16:11:52.893Z,17.63
2022-08-26T16:14:21.640Z,17.97
2022-08-26T16:16:50.571Z,18.47
2022-08-26T16:19:19.231Z,18.70
2022-08-26T16:21:48.204Z,18.70
2022-08-26T16:24:17.974Z,18.70
2022-08-26T16:26:46.342Z,18.70
2022-08-26T16:29:17.060Z,18.93
2022-08-26T16:31:45.408Z,17.20
2022-08-26T16:34:13.809Z,18.80
2022-08-26T16:36:42.057Z,18.13
2022-08-26T16:39:10.898Z,18.63
2022-08-26T16:41:42.941Z,19.43
2022-08-26T16:44:12.130Z,20.03
2022-08-26T16:46:42.955Z,18.77
2022-08-26T16:49:15.831Z,20.43
2022-08-26T16:51:44.343Z,20.30
2022-08-26T16:54:13.398Z,20.73
2022-08-26T16:56:44.254Z,20.70
2022-08-26T16:59:15.445Z,23.60
2022-08-26T17:01:43.815Z,20.27
2022-08-26T17:04:12.201Z,21.73
2022-08-26T17:06:43.610Z,21.40
2022-08-26T17:09:12.080Z,20.20
2022-08-26T17:11:41.406Z,20.77
2022-08-26T17:14:11.529Z,20.47
2022-08-26T17:16:40.234Z,21.00
2022-08-26T17:19:08.616Z,21.30
2022-08-26T17:21:39.208Z,21.90
2022-08-26T17:24:08.033Z,25.93
2022-08-26T17:26:38.005Z,23.27
2022-08-26T17:29:12.762Z,25.83
2022-08-26T17:31:43.516Z,23.13
2022-08-26T17:34:13.094Z,21.10
2022-08-26T17:36:41.929Z,21.43
2022-08-26T17:39:13.517Z,21.77
2022-08-26T17:41:42.666Z,21.23
2022-08-26T17:44:12.862Z,21.03
2022-08-26T17:46:41.515Z,22.53
2022-08-26T17:49:16.524Z,21.70
2022-08-26T17:55:09.694Z,19.37
2022-08-26T17:57:47.759Z,20.37
2022-08-26T18:00:44.671Z,18.47
2022-08-26T18:03:16.365Z,18.77
2022-08-26T18:05:54.577Z,18.70
2022-08-26T18:08:58.866Z,19.43
2022-08-26T18:11:53.084Z,19.77
2022-08-26T18:14:23.674Z,19.60
2022-08-26T18:16:54.287Z,26.67
2022-08-26T18:19:22.722Z,22.80
2022-08-26T18:21:52.750Z,19.70
2022-08-26T18:24:21.275Z,21.03
2022-08-26T18:26:51.329Z,21.80
2022-08-26T18:29:21.969Z,22.10
2022-08-26T18:31:50.616Z,21.17
2022-08-26T18:34:24.962Z,21.83
2022-08-26T18:39:47.613Z,21.80
2022-08-26T18:42:24.270Z,21.07
2022-08-26T18:44:52.854Z,20.50
2022-08-26T18:47:59.821Z,21.63
2022-08-26T18:50:50.140Z,22.70
2022-08-26T18:53:27.581Z,26.20
2022-08-26T18:55:56.309Z,21.10
2022-08-26T18:58:35.604Z,21.63
2022-08-26T19:01:18.472Z,21.50
2022-08-26T19:03:52.777Z,25.13
2022-08-26T19:06:27.635Z,22.20
2022-08-26T19:09:14.619Z,21.70
2022-08-26T19:11:43.688Z,24.47
2022-08-26T19:14:14.429Z,22.20
2022-08-26T19:16:45.449Z,21.37
2022-08-26T19:19:15.323Z,33.93
2022-08-26T19:21:45.299Z,78.27
2022-08-26T19:24:17.638Z,25.80
2022-08-26T19:26:58.442Z,21.53
2022-08-26T19:29:31.479Z,20.80
2022-08-26T19:32:02.086Z,23.27
2022-08-26T19:34:31.670Z,22.80
2022-08-26T19:37:02.515Z,21.33
2022-08-26T19:39:31.594Z,20.37
2022-08-26T19:42:00.886Z,20.63
2022-08-26T19:44:46.784Z,23.80
2022-08-26T19:47:17.336Z,22.60
2022-08-26T19:49:46.194Z,19.87
2022-08-26T19:52:16.332Z,19.27
2022-08-26T19:54:44.840Z,21.30
2022-08-26T19:57:14.762Z,21.83
2022-08-26T19:59:43.399Z,21.00
2022-08-26T20:02:15.131Z,21.50
2022-08-26T20:04:47.542Z,22.53
2022-08-26T20:13:22.840Z,22.40
2022-08-26T20:15:51.297Z,21.67
2022-08-26T20:18:54.432Z,23.90
2022-08-26T20:21:29.925Z,25.80
2022-08-26T20:24:03.651Z,25.50
2022-08-26T20:26:35.129Z,23.00
2022-08-26T20:29:07.980Z,22.70
2022-08-26T20:31:40.092Z,24.17
2022-08-26T20:34:15.850Z,21.83
2022-08-26T20:36:46.553Z,21.57
2022-08-26T20:39:18.989Z,26.83
2022-08-26T20:41:48.069Z,22.83
2022-08-26T20:44:19.121Z,22.50
2022-08-26T20:46:51.582Z,23.70
2022-08-26T20:49:22.622Z,22.30
2022-08-26T20:51:54.485Z,22.70
2022-08-26T20:54:31.202Z,35.50
2022-08-26T20:57:00.702Z,23.43
2022-08-26T21:00:00.595Z,23.50
2022-08-26T21:02:43.101Z,22.60
2022-08-26T21:05:11.971Z,22.97
2022-08-26T21:07:41.283Z,25.40
2022-08-26T21:10:20.708Z,27.90
2022-08-26T21:12:55.003Z,24.37
2022-08-26T21:15:24.772Z,24.30
2022-08-26T21:17:57.816Z,26.13
2022-08-26T21:20:27.633Z,25.00
2022-08-26T21:22:56.228Z,23.27
2022-08-26T21:25:26.702Z,26.67
2022-08-26T21:27:55.764Z,30.93
2022-08-26T21:30:24.711Z,24.83
2022-08-26T21:32:56.150Z,23.30
2022-08-26T21:35:26.335Z,22.80
2022-08-26T21:37:54.792Z,24.70
2022-08-26T21:40:25.495Z,24.53
2022-08-26T21:42:54.008Z,23.30
2022-08-26T21:45:22.499Z,27.10
2022-08-26T21:47:51.314Z,23.93
2022-08-26T21:50:19.963Z,26.10
2022-08-26T21:52:49.683Z,24.53
2022-08-26T21:55:18.267Z,24.77
2022-08-26T21:57:48.988Z,24.00
2022-08-26T22:00:19.529Z,23.90
2022-08-26T22:02:50.395Z,24.90
2022-08-26T22:05:21.072Z,24.30
2022-08-26T22:07:51.909Z,25.80
2022-08-26T22:10:20.496Z,25.43
2022-08-26T22:12:48.888Z,24.10
2022-08-26T22:15:19.808Z,24.40
2022-08-26T22:17:48.151Z,24.30
2022-08-26T22:20:16.885Z,23.40
2022-08-26T22:22:45.155Z,26.20
2022-08-26T22:25:17.559Z,24.63
2022-08-26T22:27:45.997Z,25.30
2022-08-26T22:30:14.769Z,25.13
2022-08-26T22:32:44.015Z,24.70
2022-08-26T22:35:28.956Z,24.70
2022-08-26T22:37:58.342Z,24.63
2022-08-26T22:40:30.796Z,25.10
2022-08-26T22:43:00.290Z,25.13
2022-08-26T22:45:29.287Z,25.40
2022-08-26T22:47:57.619Z,25.47
2022-08-26T22:50:26.110Z,24.77
2022-08-26T22:52:54.357Z,25.97
2022-08-26T22:55:22.654Z,25.17
2022-08-26T22:57:52.385Z,24.13
2022-08-26T23:00:20.729Z,24.47
2022-08-26T23:03:01.010Z,26.10
2022-08-26T23:05:29.712Z,25.20
2022-08-26T23:07:58.244Z,24.70
2022-08-26T23:10:27.035Z,24.20
2022-08-26T23:12:57.576Z,24.27
2022-08-26T23:15:26.440Z,23.50
2022-08-26T23:17:58.947Z,23.87
2022-08-26T23:20:42.655Z,23.83
2022-08-26T23:23:11.028Z,22.40
2022-08-26T23:25:39.234Z,22.60
2022-08-26T23:28:12.548Z,25.13
2022-08-26T23:30:41.018Z,24.37
2022-08-26T23:33:09.193Z,21.70
2022-08-26T23:35:36.597Z,23.30
2022-08-26T23:38:11.704Z,24.03
2022-08-26T23:40:43.024Z,25.67
2022-08-26T23:43:20.510Z,25.90
2022-08-26T23:45:49.184Z,24.87
2022-08-26T23:48:20.922Z,25.13
2022-08-26T23:51:06.572Z,24.53
2022-08-26T23:53:34.927Z,24.30
2022-08-26T23:56:03.277Z,23.90
2022-08-26T23:58:35.426Z,23.23
